createdAt,value
2019-01-18T00:02:20.975Z,76.87
2019-01-18T00:04:49.291Z,76.83
2019-01-18T00:07:17.830Z,75.60
2019-01-18T00:09:46.121Z,71.23
2019-01-18T00:12:14.802Z,69.13
2019-01-18T00:14:43.139Z,74.73
2019-01-18T00:17:11.437Z,90.93
2019-01-18T00:19:40.037Z,82.97
2019-01-18T00:22:08.349Z,74.90
2019-01-18T00:24:37.002Z,78.33
2019-01-18T00:27:05.590Z,107.77
2019-01-18T00:29:33.882Z,115.00
2019-01-18T00:32:02.187Z,122.30
2019-01-18T00:34:30.822Z,114.83
2019-01-18T00:36:59.123Z,121.37
2019-01-18T00:39:27.814Z,114.43
2019-01-18T00:41:56.098Z,107.97
2019-01-18T00:44:24.749Z,105.73
2019-01-18T00:46:53.048Z,104.10
2019-01-18T00:49:21.728Z,106.67
2019-01-18T00:51:50.019Z,134.20
2019-01-18T00:54:18.579Z,134.67
2019-01-18T00:56:47.106Z,122.70
2019-01-18T00:59:15.416Z,124.13
2019-01-18T01:01:43.706Z,109.43
2019-01-18T01:04:12.291Z,118.90
2019-01-18T01:06:40.874Z,125.87
2019-01-18T01:09:09.162Z,124.70
2019-01-18T01:11:37.734Z,118.70
2019-01-18T01:14:06.320Z,119.37
2019-01-18T01:16:34.621Z,119.40
2019-01-18T01:19:02.906Z,118.17
2019-01-18T01:21:31.211Z,115.30
2019-01-18T01:23:59.495Z,113.27
2019-01-18T01:26:28.105Z,110.73
2019-01-18T01:28:56.429Z,111.83
2019-01-18T01:31:24.713Z,112.43
2019-01-18T01:33:53.350Z,104.87
2019-01-18T01:36:21.937Z,104.07
2019-01-18T01:38:50.251Z,104.67
2019-01-18T01:41:18.902Z,103.50
2019-01-18T01:43:47.478Z,100.87
2019-01-18T01:46:15.771Z,100.40
2019-01-18T01:48:44.066Z,102.77
2019-01-18T01:51:12.718Z,100.50
2019-01-18T01:53:41.301Z,95.70
2019-01-18T01:56:09.602Z,96.53
2019-01-18T01:58:38.158Z,96.03
2019-01-18T02:01:06.750Z,93.43
2019-01-18T02:03:35.057Z,93.37
2019-01-18T02:06:03.706Z,89.07
2019-01-18T02:08:31.997Z,92.23
2019-01-18T02:11:00.281Z,89.63
2019-01-18T02:13:28.841Z,89.70
2019-01-18T02:15:57.122Z,85.63
2019-01-18T02:18:25.447Z,83.90
2019-01-18T02:20:53.738Z,85.97
2019-01-18T02:23:22.043Z,82.37
2019-01-18T02:25:50.338Z,83.03
2019-01-18T02:28:18.634Z,83.77
2019-01-18T02:30:47.295Z,81.67
2019-01-18T02:33:15.613Z,78.67
2019-01-18T02:35:43.990Z,78.00
2019-01-18T02:38:12.534Z,77.17
2019-01-18T02:40:40.842Z,76.47
2019-01-18T02:43:09.130Z,77.20
2019-01-18T02:45:37.771Z,77.20
2019-01-18T02:48:06.053Z,72.37
2019-01-18T02:50:34.355Z,74.33
2019-01-18T02:53:02.735Z,71.10
2019-01-18T02:55:31.286Z,70.80
2019-01-18T02:57:59.870Z,67.77
2019-01-18T03:00:28.459Z,67.57
2019-01-18T03:02:56.747Z,67.70
2019-01-18T03:05:26.175Z,69.83
2019-01-18T03:07:54.477Z,65.07
2019-01-18T03:10:27.646Z,67.80
2019-01-18T03:12:55.950Z,64.47
2019-01-18T03:15:24.565Z,62.80
2019-01-18T03:17:53.157Z,63.13
2019-01-18T03:20:21.444Z,63.00
2019-01-18T03:22:49.734Z,61.13
2019-01-18T03:25:23.799Z,60.13
2019-01-18T03:27:52.402Z,61.47
2019-01-18T03:30:21.415Z,59.57
2019-01-18T03:32:49.893Z,57.87
2019-01-18T03:35:21.127Z,57.87
2019-01-18T03:37:49.502Z,57.63
2019-01-18T03:40:19.482Z,58.87
2019-01-18T03:42:48.158Z,51.93
2019-01-18T03:45:18.355Z,47.43
2019-01-18T03:47:47.256Z,46.87
2019-01-18T03:50:21.842Z,52.83
2019-01-18T03:52:50.121Z,54.30
2019-01-18T03:55:18.431Z,56.73
2019-01-18T03:57:46.733Z,58.60
2019-01-18T04:00:28.918Z,51.77
2019-01-18T04:02:57.454Z,49.73
2019-01-18T04:05:25.826Z,53.57
2019-01-18T04:07:54.186Z,57.23
2019-01-18T04:10:23.029Z,72.53
2019-01-18T04:12:51.685Z,62.80
2019-01-18T04:15:22.120Z,57.63
2019-01-18T04:17:50.416Z,59.70
2019-01-18T04:20:19.951Z,60.23
2019-01-18T04:22:48.273Z,57.50
2019-01-18T04:25:18.250Z,59.07
2019-01-18T04:27:46.529Z,56.83
2019-01-18T04:30:16.960Z,57.90
2019-01-18T04:32:45.304Z,54.97
2019-01-18T04:35:14.043Z,54.27
2019-01-18T04:37:42.322Z,54.20
2019-01-18T04:40:13.575Z,53.53
2019-01-18T04:42:42.170Z,54.33
2019-01-18T04:45:10.850Z,51.17
2019-01-18T04:47:39.166Z,52.20
2019-01-18T04:50:10.726Z,51.00
2019-01-18T04:52:39.013Z,50.13
2019-01-18T04:55:08.969Z,49.23
2019-01-18T04:57:37.554Z,50.60
2019-01-18T05:00:21.509Z,49.47
2019-01-18T05:02:50.050Z,48.00
2019-01-18T05:05:18.397Z,48.83
2019-01-18T05:07:46.701Z,48.37
2019-01-18T05:10:21.167Z,48.90
2019-01-18T05:12:49.746Z,46.23
2019-01-18T05:15:20.389Z,45.43
2019-01-18T05:17:48.964Z,45.60
2019-01-18T05:20:17.243Z,44.67
2019-01-18T05:22:45.552Z,44.37
2019-01-18T05:25:14.102Z,45.23
2019-01-18T05:27:42.643Z,42.50
2019-01-18T05:30:22.674Z,43.50
2019-01-18T05:32:50.968Z,41.60
2019-01-18T05:35:19.602Z,42.40
2019-01-18T05:37:47.902Z,43.20
2019-01-18T05:40:18.142Z,40.80
2019-01-18T05:42:46.782Z,41.00
2019-01-18T05:45:20.577Z,39.60
2019-01-18T05:47:48.918Z,39.63
2019-01-18T05:50:27.374Z,39.27
2019-01-18T05:52:55.978Z,37.67
2019-01-18T05:55:24.551Z,38.70
2019-01-18T05:57:52.874Z,37.33
2019-01-18T06:00:38.126Z,37.07
2019-01-18T06:03:06.682Z,37.30
2019-01-18T06:05:37.837Z,36.00
2019-01-18T06:08:06.432Z,35.87
2019-01-18T06:10:35.102Z,34.93
2019-01-18T06:13:03.695Z,34.43
2019-01-18T06:15:32.115Z,34.13
2019-01-18T06:18:00.406Z,34.17
2019-01-18T06:20:29.022Z,33.07
2019-01-18T06:22:57.608Z,33.70
2019-01-18T06:25:26.193Z,33.90
2019-01-18T06:27:54.516Z,31.83
2019-01-18T06:30:23.176Z,32.30
2019-01-18T06:32:51.854Z,31.87
2019-01-18T06:35:20.662Z,30.67
2019-01-18T06:37:48.941Z,31.00
2019-01-18T06:40:22.146Z,30.63
2019-01-18T06:42:50.787Z,30.20
2019-01-18T06:45:21.630Z,28.77
2019-01-18T06:47:49.914Z,30.40
2019-01-18T06:50:19.699Z,29.80
2019-01-18T06:52:48.001Z,30.20
2019-01-18T06:55:16.415Z,28.17
2019-01-18T06:57:44.774Z,28.47
2019-01-18T07:00:30.267Z,28.27
2019-01-18T07:02:58.615Z,27.30
2019-01-18T07:05:26.938Z,27.03
2019-01-18T07:07:55.734Z,26.40
2019-01-18T07:10:25.383Z,26.60
2019-01-18T07:12:53.694Z,27.73
2019-01-18T07:15:22.350Z,26.90
2019-01-18T07:17:50.935Z,26.13
2019-01-18T07:20:20.460Z,25.30
2019-01-18T07:22:48.778Z,25.30
2019-01-18T07:25:26.166Z,25.67
2019-01-18T07:27:54.449Z,24.53
2019-01-18T07:30:31.334Z,23.50
2019-01-18T07:32:59.939Z,24.50
2019-01-18T07:35:28.539Z,24.23
2019-01-18T07:37:56.810Z,23.33
2019-01-18T07:40:26.225Z,22.97
2019-01-18T07:42:54.990Z,23.00
2019-01-18T07:45:26.544Z,22.37
2019-01-18T07:47:54.829Z,23.13
2019-01-18T07:50:23.402Z,23.40
2019-01-18T07:52:51.708Z,21.90
2019-01-18T07:55:20.190Z,23.20
2019-01-18T07:57:48.471Z,21.57
2019-01-18T08:00:22.021Z,19.63
2019-01-18T08:02:50.315Z,26.87
2019-01-18T08:05:19.618Z,63.33
2019-01-18T08:07:47.918Z,66.03
2019-01-18T08:10:22.009Z,70.73
2019-01-18T08:12:50.595Z,90.00
2019-01-18T08:15:21.938Z,88.97
2019-01-18T08:17:50.258Z,90.37
2019-01-18T08:20:24.394Z,84.80
2019-01-18T08:22:52.862Z,78.70
2019-01-18T08:25:21.711Z,77.80
2019-01-18T08:27:49.995Z,76.77
2019-01-18T08:30:29.266Z,78.47
2019-01-18T08:32:57.686Z,75.87
2019-01-18T08:35:27.052Z,76.47
2019-01-18T08:37:55.867Z,79.13
2019-01-18T08:40:27.007Z,76.17
2019-01-18T08:42:55.614Z,76.87
2019-01-18T08:45:32.763Z,73.60
2019-01-18T08:48:01.498Z,70.80
2019-01-18T08:50:30.355Z,73.70
2019-01-18T08:52:59.015Z,75.00
2019-01-18T08:55:27.313Z,73.00
2019-01-18T08:57:55.947Z,73.63
2019-01-18T09:00:28.971Z,91.77
2019-01-18T09:02:57.271Z,95.43
2019-01-18T09:05:27.114Z,95.43
2019-01-18T09:07:55.409Z,97.87
2019-01-18T09:10:29.866Z,90.97
2019-01-18T09:12:58.482Z,93.57
2019-01-18T09:15:27.067Z,89.80
2019-01-18T09:17:55.408Z,88.60
2019-01-18T09:20:26.347Z,87.60
2019-01-18T09:22:54.644Z,87.50
2019-01-18T09:25:23.269Z,84.17
2019-01-18T09:27:51.605Z,82.40
2019-01-18T09:30:22.986Z,81.97
2019-01-18T09:32:51.584Z,80.03
2019-01-18T09:35:21.908Z,79.40
2019-01-18T09:37:50.205Z,80.40
2019-01-18T09:40:21.397Z,94.23
2019-01-18T09:42:49.990Z,93.00
2019-01-18T09:45:18.274Z,88.13
2019-01-18T09:47:46.847Z,85.13
2019-01-18T09:50:18.091Z,81.70
2019-01-18T09:52:46.710Z,94.50
2019-01-18T09:55:15.361Z,91.97
2019-01-18T09:57:43.667Z,103.23
2019-01-18T10:00:23.483Z,100.83
2019-01-18T10:02:52.086Z,96.80
2019-01-18T10:05:21.056Z,91.63
2019-01-18T10:07:49.366Z,88.03
2019-01-18T10:10:19.413Z,82.57
2019-01-18T10:12:48.564Z,83.00
2019-01-18T10:15:25.692Z,78.97
2019-01-18T10:18:00.395Z,81.13
2019-01-18T10:20:24.342Z,72.73
2019-01-18T10:22:52.646Z,86.53
2019-01-18T10:25:20.950Z,114.77
2019-01-18T10:27:49.583Z,106.17
2019-01-18T10:30:20.035Z,108.63
2019-01-18T10:32:48.331Z,111.03
2019-01-18T10:35:17.151Z,103.00
2019-01-18T10:37:45.462Z,103.27
2019-01-18T10:40:16.287Z,102.37
2019-01-18T10:42:45.219Z,96.80
2019-01-18T10:45:15.254Z,93.67
2019-01-18T10:47:44.090Z,94.47
2019-01-18T10:50:14.842Z,88.57
2019-01-18T10:52:43.148Z,88.93
2019-01-18T10:55:11.890Z,96.37
2019-01-18T10:57:40.497Z,105.63
2019-01-18T11:00:14.690Z,96.37
2019-01-18T11:02:43.374Z,94.30
2019-01-18T11:05:13.204Z,91.97
2019-01-18T11:07:41.769Z,91.03
2019-01-18T11:10:15.168Z,87.30
2019-01-18T11:12:43.750Z,85.70
2019-01-18T11:15:20.833Z,87.63
2019-01-18T11:17:49.122Z,84.77
2019-01-18T11:20:22.942Z,82.80
2019-01-18T11:22:52.070Z,88.93
2019-01-18T11:25:20.700Z,83.93
2019-01-18T11:27:50.860Z,81.17
2019-01-18T11:30:19.508Z,85.67
2019-01-18T11:32:48.189Z,97.37
2019-01-18T11:35:16.780Z,96.87
2019-01-18T11:37:45.462Z,96.57
2019-01-18T11:40:17.219Z,88.50
2019-01-18T11:42:45.907Z,82.97
2019-01-18T11:45:15.013Z,100.60
2019-01-18T11:47:43.687Z,118.10
2019-01-18T11:50:25.997Z,128.87
2019-01-18T11:52:54.287Z,135.73
2019-01-18T11:55:22.609Z,133.43
2019-01-18T11:57:51.147Z,128.10
2019-01-18T12:00:22.265Z,136.70
2019-01-18T12:02:50.860Z,132.87
2019-01-18T12:05:19.208Z,127.77
2019-01-18T12:07:47.509Z,123.00
2019-01-18T12:10:18.601Z,122.87
2019-01-18T12:12:46.922Z,119.70
2019-01-18T12:15:15.727Z,118.20
2019-01-18T12:17:44.032Z,115.53
2019-01-18T12:20:21.491Z,110.00
2019-01-18T12:22:49.805Z,108.83
2019-01-18T12:25:18.451Z,119.50
2019-01-18T12:27:46.746Z,113.00
2019-01-18T12:30:17.890Z,126.53
2019-01-18T12:32:46.199Z,131.93
2019-01-18T12:35:14.842Z,136.97
2019-01-18T12:37:46.223Z,143.20
2019-01-18T12:40:14.536Z,131.70
2019-01-18T12:42:42.823Z,130.70
2019-01-18T12:45:14.187Z,116.53
2019-01-18T12:47:42.875Z,114.40
2019-01-18T12:50:17.228Z,103.90
2019-01-18T12:52:45.776Z,95.03
2019-01-18T12:55:16.208Z,100.13
2019-01-18T12:57:44.788Z,110.83
2019-01-18T13:00:16.660Z,122.43
2019-01-18T13:02:45.534Z,111.83
2019-01-18T13:05:16.866Z,106.30
2019-01-18T13:07:46.066Z,109.03
2019-01-18T13:10:14.392Z,104.77
2019-01-18T13:12:42.698Z,104.17
2019-01-18T13:15:17.879Z,104.83
2019-01-18T13:17:46.190Z,103.33
2019-01-18T13:20:15.047Z,100.20
2019-01-18T13:22:43.630Z,97.03
2019-01-18T13:25:14.722Z,101.30
2019-01-18T13:27:43.289Z,95.97
2019-01-18T13:30:14.579Z,95.23
2019-01-18T13:32:42.877Z,93.83
2019-01-18T13:35:11.466Z,92.37
2019-01-18T13:37:39.846Z,89.17
2019-01-18T13:40:19.998Z,88.70
2019-01-18T13:42:48.297Z,88.60
2019-01-18T13:45:16.596Z,113.60
2019-01-18T13:47:46.258Z,121.80
2019-01-18T13:50:16.593Z,112.97
2019-01-18T13:52:44.902Z,104.50
2019-01-18T13:55:28.623Z,95.30
2019-01-18T13:57:56.949Z,88.77
2019-01-18T14:00:25.564Z,90.33
2019-01-18T14:02:55.171Z,87.37
2019-01-18T14:05:23.482Z,86.63
2019-01-18T14:07:53.460Z,85.17
2019-01-18T14:10:29.766Z,82.57
2019-01-18T14:12:58.049Z,82.60
2019-01-18T14:15:26.434Z,76.80
2019-01-18T14:17:54.732Z,80.47
2019-01-18T14:20:25.546Z,79.63
2019-01-18T14:22:53.839Z,79.53
2019-01-18T14:25:22.464Z,87.33
2019-01-18T14:27:51.146Z,86.07
2019-01-18T14:30:27.645Z,86.57
2019-01-18T14:32:56.153Z,86.27
2019-01-18T14:35:24.984Z,84.27
2019-01-18T14:37:53.601Z,79.43
2019-01-18T14:40:22.262Z,80.37
2019-01-18T14:42:52.310Z,80.40
2019-01-18T14:45:44.011Z,77.77
2019-01-18T14:48:12.303Z,72.13
2019-01-18T14:50:40.608Z,109.77
2019-01-18T14:53:09.161Z,110.83
2019-01-18T14:55:37.733Z,111.13
2019-01-18T14:58:07.558Z,123.40
2019-01-18T15:00:37.601Z,113.50
2019-01-18T15:03:06.139Z,116.47
2019-01-18T15:05:34.824Z,116.67
2019-01-18T15:08:03.230Z,111.83
2019-01-18T15:10:31.923Z,111.30
2019-01-18T15:13:08.691Z,106.00
2019-01-18T15:15:36.987Z,102.07
2019-01-18T15:18:05.851Z,102.77
2019-01-18T15:20:34.413Z,112.93
2019-01-18T15:23:02.999Z,135.13
2019-01-18T15:25:31.296Z,122.03
2019-01-18T15:28:00.980Z,114.70
2019-01-18T15:30:34.032Z,108.43
2019-01-18T15:33:08.827Z,111.77
2019-01-18T15:35:35.662Z,107.27
2019-01-18T15:38:05.292Z,104.70
2019-01-18T15:40:36.636Z,101.90
2019-01-18T15:43:05.556Z,95.90
2019-01-18T15:45:34.591Z,93.40
2019-01-18T15:48:03.271Z,90.23
2019-01-18T15:50:33.965Z,85.80
2019-01-18T15:53:02.778Z,83.47
2019-01-18T15:55:31.633Z,81.17
2019-01-18T15:58:00.124Z,81.53
2019-01-18T16:00:39.611Z,78.23
2019-01-18T16:03:08.167Z,79.47
2019-01-18T16:05:37.073Z,74.33
2019-01-18T16:08:06.163Z,74.03
2019-01-18T16:10:34.468Z,73.63
2019-01-18T16:13:03.039Z,72.23
2019-01-18T16:15:41.250Z,69.13
2019-01-18T16:18:12.933Z,69.40
2019-01-18T16:20:41.596Z,66.70
2019-01-18T16:23:09.963Z,67.07
2019-01-18T16:25:38.395Z,66.47
2019-01-18T16:28:07.035Z,61.93
2019-01-18T16:30:35.592Z,58.27
2019-01-18T16:33:04.122Z,56.83
2019-01-18T16:35:32.495Z,59.40
2019-01-18T16:38:01.549Z,54.43
2019-01-18T16:40:36.141Z,54.53
2019-01-18T16:43:21.998Z,54.43
2019-01-18T16:45:50.043Z,52.77
2019-01-18T16:48:18.543Z,50.90
2019-01-18T16:50:47.323Z,50.73
2019-01-18T16:53:16.091Z,50.33
2019-01-18T16:55:45.516Z,47.87
2019-01-18T16:58:14.614Z,47.73
2019-01-18T17:00:49.439Z,45.70
2019-01-18T17:03:18.436Z,45.53
2019-01-18T17:05:47.330Z,45.37
2019-01-18T17:08:15.859Z,43.17
2019-01-18T17:10:44.154Z,43.30
2019-01-18T17:13:12.714Z,39.87
2019-01-18T17:15:41.250Z,40.77
2019-01-18T17:18:10.238Z,40.17
2019-01-18T17:20:45.089Z,38.80
2019-01-18T17:23:13.875Z,37.77
2019-01-18T17:25:42.548Z,36.67
2019-01-18T17:28:11.440Z,36.90
2019-01-18T17:30:40.143Z,35.10
2019-01-18T17:33:08.904Z,36.87
2019-01-18T17:35:42.845Z,36.20
2019-01-18T17:38:26.981Z,35.07
2019-01-18T17:41:13.892Z,34.57
2019-01-18T17:44:06.768Z,31.40
2019-01-18T17:46:41.011Z,30.00
2019-01-18T17:49:23.949Z,30.13
2019-01-18T17:52:01.037Z,29.40
2019-01-18T17:54:41.639Z,27.77
2019-01-18T17:57:31.314Z,29.23
2019-01-18T18:00:26.937Z,28.20
2019-01-18T18:03:10.698Z,27.90
2019-01-18T18:06:14.483Z,28.27
2019-01-18T18:08:49.214Z,26.87
2019-01-18T18:11:23.811Z,25.33
2019-01-18T18:14:16.924Z,24.57
2019-01-18T18:17:00.710Z,24.50
2019-01-18T18:19:49.923Z,23.80
2019-01-18T18:22:39.277Z,23.23
2019-01-18T18:25:22.507Z,23.77
2019-01-18T18:28:08.754Z,22.77
2019-01-18T18:30:43.530Z,21.33
2019-01-18T18:33:29.856Z,21.47
2019-01-18T18:36:07.278Z,20.60
2019-01-18T18:38:56.698Z,21.53
2019-01-18T18:41:33.950Z,19.77
2019-01-18T18:44:11.594Z,21.30
2019-01-18T18:47:01.852Z,19.13
2019-01-18T18:50:02.810Z,21.07
2019-01-18T18:53:02.177Z,19.20
2019-01-18T18:55:41.875Z,19.07
2019-01-18T18:58:13.440Z,18.87
2019-01-18T19:00:54.598Z,18.00
2019-01-18T19:03:38.438Z,18.27
2019-01-18T19:06:12.758Z,18.77
2019-01-18T19:08:50.156Z,17.63
2019-01-18T19:11:30.625Z,17.30
2019-01-18T19:14:14.209Z,16.40
2019-01-18T19:17:12.175Z,16.90
2019-01-18T19:20:00.260Z,17.00
2019-01-18T19:22:37.648Z,16.23
2019-01-18T19:25:11.631Z,16.13
2019-01-18T19:28:01.082Z,15.97
2019-01-18T19:30:57.030Z,15.83
2019-01-18T19:33:33.790Z,16.17
2019-01-18T19:36:08.224Z,16.43
2019-01-18T19:38:43.485Z,14.73
2019-01-18T19:41:15.717Z,16.10
2019-01-18T19:44:03.636Z,15.97
2019-01-18T19:46:47.431Z,14.97
2019-01-18T19:49:57.089Z,14.47
2019-01-18T19:52:32.248Z,14.43
2019-01-18T19:55:21.879Z,14.43
2019-01-18T19:58:09.097Z,13.73
2019-01-18T20:00:43.862Z,13.23
2019-01-18T20:03:23.966Z,12.67
2019-01-18T20:06:04.383Z,13.57
2019-01-18T20:08:36.269Z,13.30
2019-01-18T20:11:39.959Z,13.23
2019-01-18T20:14:41.723Z,12.67
2019-01-18T20:17:31.323Z,12.80
2019-01-18T20:20:27.224Z,13.00
2019-01-18T20:23:10.749Z,12.33
2019-01-18T20:25:45.220Z,11.83
2019-01-18T20:28:19.542Z,11.73
2019-01-18T20:31:06.298Z,13.23
2019-01-18T20:34:07.248Z,12.00
2019-01-18T20:36:53.884Z,12.27
2019-01-18T20:39:41.221Z,11.67
2019-01-18T20:42:18.650Z,11.80
2019-01-18T20:44:59.439Z,11.50
2019-01-18T20:47:34.075Z,12.53
2019-01-18T20:50:11.440Z,12.00
2019-01-18T20:52:48.568Z,11.53
2019-01-18T20:55:20.131Z,11.33
2019-01-18T20:58:03.685Z,11.37
2019-01-18T21:00:53.420Z,11.00
2019-01-18T21:03:33.983Z,11.00
2019-01-18T21:06:13.905Z,10.63
2019-01-18T21:09:09.272Z,10.83
2019-01-18T21:11:43.760Z,10.47
2019-01-18T21:14:27.315Z,10.87
2019-01-18T21:17:01.765Z,10.20
2019-01-18T21:19:54.322Z,10.57
2019-01-18T21:22:43.522Z,10.13
2019-01-18T21:25:33.314Z,10.20
2019-01-18T21:28:25.869Z,10.03
2019-01-18T21:31:15.485Z,9.97
2019-01-18T21:34:16.280Z,10.50
2019-01-18T21:37:21.118Z,10.30
2019-01-18T21:40:04.044Z,10.87
2019-01-18T21:42:38.560Z,11.53
2019-01-18T21:45:44.423Z,10.77
2019-01-18T21:48:42.396Z,11.13
2019-01-18T21:51:29.258Z,10.47
2019-01-18T21:54:09.120Z,10.40
2019-01-18T21:56:49.735Z,10.57
2019-01-18T21:59:21.418Z,10.80
2019-01-18T22:02:09.833Z,10.33
2019-01-18T22:04:50.272Z,11.83
2019-01-18T22:07:30.852Z,10.67
2019-01-18T22:10:14.624Z,11.03
2019-01-18T22:13:02.785Z,11.10
2019-01-18T22:15:50.942Z,10.80
2019-01-18T22:18:28.135Z,10.87
2019-01-18T22:21:19.082Z,11.13
2019-01-18T22:23:59.221Z,10.97
2019-01-18T22:26:33.507Z,11.70
2019-01-18T22:29:07.992Z,11.40
2019-01-18T22:31:57.597Z,11.03
2019-01-18T22:34:47.956Z,11.53
2019-01-18T22:37:36.073Z,11.17
2019-01-18T22:40:26.366Z,10.83
2019-01-18T22:43:01.182Z,11.47
2019-01-18T22:45:41.630Z,10.70
2019-01-18T22:48:19.458Z,11.50
2019-01-18T22:50:55.010Z,11.07
2019-01-18T22:53:32.705Z,11.07
2019-01-18T22:56:07.219Z,11.60
2019-01-18T22:58:50.962Z,11.30
2019-01-18T23:01:47.502Z,11.80
2019-01-18T23:04:19.667Z,12.17
2019-01-18T23:06:54.880Z,10.93
2019-01-18T23:09:38.498Z,11.57
2019-01-18T23:12:15.524Z,12.97
2019-01-18T23:15:08.722Z,12.33
2019-01-18T23:17:49.097Z,11.63
2019-01-18T23:20:29.126Z,12.10
2019-01-18T23:23:19.183Z,13.47
2019-01-18T23:25:53.616Z,12.00
2019-01-18T23:28:50.785Z,13.27
2019-01-18T23:31:30.767Z,13.30
2019-01-18T23:36:55.656Z,12.10
2019-01-18T23:39:45.926Z,11.37
2019-01-18T23:42:32.732Z,12.13
2019-01-18T23:45:19.264Z,12.50
2019-01-18T23:48:10.942Z,13.47
2019-01-18T23:50:46.077Z,12.43
2019-01-18T23:53:30.562Z,13.73
2019-01-18T23:56:05.207Z,12.27
2019-01-18T23:58:43.291Z,12.63
